createdAt,value
2023-03-12T00:00:13.416Z,9.10
2023-03-12T00:01:15.956Z,8.98
2023-03-12T00:02:18.689Z,10.41
2023-03-12T00:03:21.141Z,9.56
2023-03-12T00:04:23.800Z,10.17
2023-03-12T00:05:26.358Z,8.74
2023-03-12T00:06:29.132Z,10.63
2023-03-12T00:07:31.717Z,8.03
2023-03-12T00:08:34.312Z,9.67
2023-03-12T00:09:36.875Z,8.74
2023-03-12T00:10:39.567Z,9.02
2023-03-12T00:11:42.145Z,8.65
2023-03-12T00:12:44.691Z,8.21
2023-03-12T00:13:47.253Z,9.49
2023-03-12T00:14:49.962Z,8.91
2023-03-12T00:15:52.584Z,10.00
2023-03-12T00:16:55.240Z,9.54
2023-03-12T00:17:57.796Z,8.70
2023-03-12T00:19:00.367Z,9.56
2023-03-12T00:20:02.913Z,9.85
2023-03-12T00:21:05.371Z,10.28
2023-03-12T00:22:07.949Z,9.11
2023-03-12T00:23:10.556Z,10.16
2023-03-12T00:24:13.151Z,10.15
2023-03-12T00:25:15.560Z,10.33
2023-03-12T00:26:18.327Z,9.36
2023-03-12T00:27:21.013Z,10.70
2023-03-12T00:28:23.599Z,9.85
2023-03-12T00:29:26.176Z,9.95
2023-03-12T00:30:28.764Z,9.70
2023-03-12T00:31:31.421Z,10.67
2023-03-12T00:32:34.067Z,10.49
2023-03-12T00:33:36.668Z,10.53
2023-03-12T00:34:39.234Z,10.64
2023-03-12T00:35:41.867Z,9.84
2023-03-12T00:36:44.694Z,10.38
2023-03-12T00:37:47.253Z,9.85
2023-03-12T00:38:49.807Z,10.72
2023-03-12T00:39:52.386Z,9.89
2023-03-12T00:40:54.891Z,10.05
2023-03-12T00:41:57.449Z,9.51
2023-03-12T00:43:00.008Z,10.30
2023-03-12T00:44:02.561Z,9.77
2023-03-12T00:45:05.527Z,9.46
2023-03-12T00:46:08.431Z,10.13
2023-03-12T00:47:10.987Z,9.12
2023-03-12T00:48:13.540Z,10.65
2023-03-12T00:49:16.147Z,10.74
2023-03-12T00:50:18.800Z,8.80
2023-03-12T00:51:21.389Z,9.73
2023-03-12T00:52:23.944Z,11.37
2023-03-12T00:53:26.546Z,9.97
2023-03-12T00:54:29.372Z,9.69
2023-03-12T00:55:31.944Z,9.23
2023-03-12T00:56:35.097Z,10.14
2023-03-12T00:57:37.725Z,10.23
2023-03-12T00:58:40.313Z,10.09
2023-03-12T00:59:42.884Z,9.79
2023-03-12T01:00:45.459Z,11.14
2023-03-12T01:01:48.005Z,10.33
2023-03-12T01:02:50.574Z,11.25
2023-03-12T01:03:53.218Z,10.30
2023-03-12T01:04:55.757Z,9.38
2023-03-12T01:05:58.325Z,9.61
2023-03-12T01:07:01.263Z,9.39
2023-03-12T01:08:03.874Z,9.97
2023-03-12T01:09:06.432Z,11.28
2023-03-12T01:10:10.105Z,10.32
2023-03-12T01:11:12.663Z,10.43
2023-03-12T01:12:15.245Z,10.06
2023-03-12T01:13:17.807Z,9.59
2023-03-12T01:14:20.353Z,9.69
2023-03-12T01:15:22.900Z,10.89
2023-03-12T01:16:25.503Z,9.92
2023-03-12T01:17:28.043Z,9.11
2023-03-12T01:18:30.589Z,9.31
2023-03-12T01:19:33.146Z,9.24
2023-03-12T01:20:35.919Z,9.10
2023-03-12T01:21:38.455Z,9.88
2023-03-12T01:22:41.273Z,9.41
2023-03-12T01:23:43.838Z,9.23
2023-03-12T01:24:46.431Z,9.60
2023-03-12T01:25:48.951Z,8.78
2023-03-12T01:26:51.609Z,8.93
2023-03-12T01:27:54.193Z,9.85
2023-03-12T01:28:56.742Z,9.74
2023-03-12T01:29:59.114Z,9.15
2023-03-12T01:31:01.701Z,9.56
2023-03-12T01:32:04.250Z,9.49
2023-03-12T01:33:06.849Z,10.15
2023-03-12T01:34:09.302Z,10.92
2023-03-12T01:35:11.887Z,10.57
2023-03-12T01:36:15.098Z,9.29
2023-03-12T01:37:17.713Z,9.29
2023-03-12T01:38:20.408Z,11.27
2023-03-12T01:39:22.984Z,9.34
2023-03-12T01:40:25.535Z,10.96
2023-03-12T01:41:28.101Z,9.81
2023-03-12T01:42:30.647Z,10.91
2023-03-12T01:43:33.210Z,10.25
2023-03-12T01:44:35.666Z,10.47
2023-03-12T01:45:38.276Z,9.71
2023-03-12T01:46:41.391Z,8.66
2023-03-12T01:47:43.943Z,9.17
2023-03-12T01:48:46.543Z,9.43
2023-03-12T01:49:49.094Z,8.93
2023-03-12T01:50:51.782Z,8.74
2023-03-12T01:51:54.332Z,8.97
2023-03-12T01:52:56.917Z,10.19
2023-03-12T01:53:59.505Z,8.84
2023-03-12T01:55:02.125Z,9.56
2023-03-12T01:56:04.755Z,8.84
2023-03-12T01:57:07.308Z,9.26
2023-03-12T01:58:09.862Z,9.35
2023-03-12T01:59:12.516Z,9.56
2023-03-12T02:00:15.481Z,9.44
2023-03-12T02:01:18.077Z,10.16
2023-03-12T02:02:20.804Z,9.53
2023-03-12T02:03:23.359Z,10.30
2023-03-12T02:04:25.972Z,9.12
2023-03-12T02:05:28.523Z,8.46
2023-03-12T02:06:31.083Z,9.11
2023-03-12T02:07:33.651Z,9.17
2023-03-12T02:08:36.250Z,8.59
2023-03-12T02:09:38.811Z,7.71
2023-03-12T02:10:41.611Z,9.16
2023-03-12T02:11:44.408Z,8.35
2023-03-12T02:12:46.969Z,8.03
2023-03-12T02:13:49.559Z,8.71
2023-03-12T02:14:52.697Z,9.55
2023-03-12T02:15:55.247Z,8.83
2023-03-12T02:16:57.798Z,8.07
2023-03-12T02:18:00.441Z,8.08
2023-03-12T02:19:03.020Z,9.69
2023-03-12T02:20:05.888Z,9.16
2023-03-12T02:21:08.443Z,8.50
2023-03-12T02:22:11.005Z,8.32
2023-03-12T02:23:13.555Z,7.63
2023-03-12T02:24:16.456Z,7.63
2023-03-12T02:25:19.012Z,7.21
2023-03-12T02:26:21.572Z,7.95
2023-03-12T02:27:24.465Z,7.97
2023-03-12T02:28:26.995Z,7.92
2023-03-12T02:29:29.545Z,6.95
2023-03-12T02:30:32.262Z,6.93
2023-03-12T02:31:34.821Z,7.08
2023-03-12T02:32:37.382Z,7.41
2023-03-12T02:33:39.950Z,7.74
2023-03-12T02:34:42.505Z,7.62
2023-03-12T02:35:45.132Z,6.65
2023-03-12T02:36:48.014Z,7.79
2023-03-12T02:37:50.579Z,8.29
2023-03-12T02:38:53.123Z,6.93
2023-03-12T02:39:55.673Z,6.67
2023-03-12T02:40:58.345Z,7.73
2023-03-12T02:42:00.956Z,6.87
2023-03-12T02:43:03.451Z,6.75
2023-03-12T02:44:06.033Z,7.89
2023-03-12T02:45:08.580Z,6.73
2023-03-12T02:46:11.695Z,7.19
2023-03-12T02:47:14.326Z,7.31
2023-03-12T02:48:16.903Z,8.33
2023-03-12T02:49:19.377Z,7.11
2023-03-12T02:50:22.014Z,6.89
2023-03-12T02:51:24.573Z,6.97
2023-03-12T02:52:27.126Z,7.27
2023-03-12T02:53:29.865Z,6.68
2023-03-12T02:54:32.417Z,6.94
2023-03-12T02:55:34.975Z,6.97
2023-03-12T02:56:38.044Z,7.15
2023-03-12T02:57:40.617Z,8.33
2023-03-12T02:58:43.162Z,8.59
2023-03-12T02:59:45.958Z,7.13
2023-03-12T03:00:48.719Z,7.48
2023-03-12T03:01:51.313Z,7.47
2023-03-12T03:02:53.887Z,7.95
2023-03-12T03:03:56.462Z,8.10
2023-03-12T03:04:59.023Z,7.64
2023-03-12T03:06:01.585Z,7.45
2023-03-12T03:07:04.139Z,7.77
2023-03-12T03:08:06.694Z,6.81
2023-03-12T03:09:09.295Z,7.65
2023-03-12T03:10:12.466Z,7.16
2023-03-12T03:11:15.118Z,8.89
2023-03-12T03:12:17.708Z,6.99
2023-03-12T03:13:20.276Z,8.81
2023-03-12T03:14:22.818Z,7.06
2023-03-12T03:15:25.377Z,7.21
2023-03-12T03:16:27.930Z,6.91
2023-03-12T03:17:30.427Z,6.75
2023-03-12T03:18:32.993Z,6.68
2023-03-12T03:19:35.645Z,7.05
2023-03-12T03:20:38.266Z,6.54
2023-03-12T03:21:40.835Z,6.46
2023-03-12T03:22:43.459Z,7.66
2023-03-12T03:23:45.989Z,6.98
2023-03-12T03:24:48.688Z,6.76
2023-03-12T03:25:51.247Z,7.24
2023-03-12T03:26:53.905Z,6.95
2023-03-12T03:27:56.586Z,7.35
2023-03-12T03:28:59.134Z,6.54
2023-03-12T03:30:01.682Z,7.33
2023-03-12T03:31:04.265Z,6.59
2023-03-12T03:32:07.018Z,6.69
2023-03-12T03:33:09.582Z,6.98
2023-03-12T03:34:12.145Z,7.51
2023-03-12T03:35:14.698Z,6.63
2023-03-12T03:36:17.702Z,6.53
2023-03-12T03:37:20.265Z,6.61
2023-03-12T03:38:22.830Z,6.83
2023-03-12T03:39:25.397Z,5.20
2023-03-12T03:40:28.051Z,5.37
2023-03-12T03:41:30.609Z,6.48
2023-03-12T03:42:33.176Z,5.99
2023-03-12T03:43:35.747Z,5.78
2023-03-12T03:44:38.442Z,5.81
2023-03-12T03:45:40.995Z,6.01
2023-03-12T03:46:43.756Z,8.69
2023-03-12T03:47:46.488Z,6.44
2023-03-12T03:48:48.960Z,5.16
2023-03-12T03:49:51.503Z,6.10
2023-03-12T03:50:54.370Z,7.41
2023-03-12T03:51:57.026Z,6.17
2023-03-12T03:52:59.552Z,6.07
2023-03-12T03:54:02.070Z,5.61
2023-03-12T03:55:04.657Z,6.26
2023-03-12T03:56:07.413Z,5.97
2023-03-12T03:57:09.980Z,6.61
2023-03-12T03:58:12.555Z,5.95
2023-03-12T03:59:15.109Z,6.81
2023-03-12T04:00:17.664Z,5.99
2023-03-12T04:01:21.134Z,5.70
2023-03-12T04:02:23.606Z,6.06
2023-03-12T04:03:26.534Z,5.88
2023-03-12T04:04:29.171Z,7.17
2023-03-12T04:05:31.814Z,6.23
2023-03-12T04:06:35.128Z,6.74
2023-03-12T04:07:37.665Z,6.59
2023-03-12T04:08:40.328Z,6.27
2023-03-12T04:09:42.825Z,6.73
2023-03-12T04:10:45.683Z,6.01
2023-03-12T04:11:48.240Z,6.34
2023-03-12T04:12:50.799Z,6.27
2023-03-12T04:13:53.358Z,6.94
2023-03-12T04:14:55.912Z,6.25
2023-03-12T04:15:58.498Z,7.16
2023-03-12T04:17:01.133Z,6.44
2023-03-12T04:18:03.718Z,5.88
2023-03-12T04:19:06.275Z,6.79
2023-03-12T04:20:09.811Z,7.16
2023-03-12T04:21:12.374Z,8.09
2023-03-12T04:22:14.926Z,7.12
2023-03-12T04:23:17.504Z,7.98
2023-03-12T04:24:20.122Z,6.99
2023-03-12T04:25:22.656Z,7.43
2023-03-12T04:26:25.415Z,6.96
2023-03-12T04:27:27.987Z,7.67
2023-03-12T04:28:30.529Z,8.33
2023-03-12T04:29:33.132Z,8.02
2023-03-12T04:30:35.892Z,7.83
2023-03-12T04:31:38.478Z,8.50
2023-03-12T04:32:41.100Z,9.49
2023-03-12T04:33:43.845Z,9.66
2023-03-12T04:34:46.404Z,8.01
2023-03-12T04:35:48.999Z,8.17
2023-03-12T04:36:52.146Z,9.67
2023-03-12T04:37:54.692Z,8.94
2023-03-12T04:38:57.264Z,9.38
2023-03-12T04:39:59.830Z,8.57
2023-03-12T04:41:02.372Z,8.47
2023-03-12T04:42:05.012Z,8.79
2023-03-12T04:43:07.610Z,8.75
2023-03-12T04:44:12.653Z,8.31
2023-03-12T04:45:14.544Z,9.49
2023-03-12T04:46:18.354Z,8.73
2023-03-12T04:47:20.979Z,9.17
2023-03-12T04:48:23.539Z,7.83
2023-03-12T04:49:26.111Z,9.25
2023-03-12T04:50:28.655Z,9.19
2023-03-12T04:51:31.209Z,9.81
2023-03-12T04:52:33.767Z,8.53
2023-03-12T04:53:36.348Z,9.01
2023-03-12T04:54:39.138Z,8.24
2023-03-12T04:55:41.653Z,8.61
2023-03-12T04:56:44.437Z,9.31
2023-03-12T04:57:47.020Z,8.91
2023-03-12T04:58:49.573Z,7.77
2023-03-12T04:59:52.065Z,8.15
2023-03-12T05:00:54.723Z,9.85
2023-03-12T05:01:57.328Z,8.59
2023-03-12T05:03:00.023Z,9.13
2023-03-12T05:04:02.896Z,7.70
2023-03-12T05:05:05.738Z,8.23
2023-03-12T05:06:09.106Z,8.52
2023-03-12T05:07:11.650Z,10.10
2023-03-12T05:08:14.437Z,8.68
2023-03-12T05:09:17.035Z,8.98
2023-03-12T05:10:20.164Z,8.16
2023-03-12T05:11:22.724Z,8.02
2023-03-12T05:12:25.286Z,8.71
2023-03-12T05:13:27.855Z,8.28
2023-03-12T05:14:30.752Z,8.51
2023-03-12T05:15:33.328Z,8.32
2023-03-12T05:16:36.122Z,7.62
2023-03-12T05:17:38.642Z,8.15
2023-03-12T05:18:41.207Z,8.55
2023-03-12T05:19:43.672Z,9.85
2023-03-12T05:20:46.427Z,7.61
2023-03-12T05:21:48.993Z,6.65
2023-03-12T05:22:51.560Z,8.41
2023-03-12T05:23:54.135Z,7.72
2023-03-12T05:24:56.698Z,8.04
2023-03-12T05:25:59.280Z,6.61
2023-03-12T05:27:02.151Z,7.50
2023-03-12T05:28:04.694Z,7.67
2023-03-12T05:29:07.159Z,6.96
2023-03-12T05:30:10.119Z,6.69
2023-03-12T05:31:12.745Z,7.55
2023-03-12T05:32:15.398Z,6.39
2023-03-12T05:33:17.952Z,6.39
2023-03-12T05:34:20.542Z,5.62
2023-03-12T05:35:23.106Z,6.17
2023-03-12T05:36:25.871Z,6.39
2023-03-12T05:37:28.421Z,5.43
2023-03-12T05:38:30.998Z,5.35
2023-03-12T05:39:33.598Z,7.17
2023-03-12T05:40:36.158Z,5.75
2023-03-12T05:41:38.627Z,5.36
2023-03-12T05:42:41.177Z,5.07
2023-03-12T05:43:43.719Z,4.87
2023-03-12T05:44:46.287Z,4.91
2023-03-12T05:45:48.889Z,5.79
2023-03-12T05:46:51.900Z,4.94
2023-03-12T05:47:54.454Z,4.67
2023-03-12T05:48:57.029Z,6.01
2023-03-12T05:49:59.607Z,5.62
2023-03-12T05:51:02.410Z,4.99
2023-03-12T05:52:04.911Z,4.73
2023-03-12T05:53:07.460Z,4.89
2023-03-12T05:54:09.958Z,5.59
2023-03-12T05:55:12.570Z,4.12
2023-03-12T05:56:15.328Z,4.21
2023-03-12T05:57:17.785Z,3.57
2023-03-12T05:58:20.162Z,4.47
2023-03-12T05:59:22.737Z,4.29
2023-03-12T06:00:25.411Z,4.63
2023-03-12T06:01:27.982Z,4.63
2023-03-12T06:02:30.546Z,5.51
2023-03-12T06:03:33.122Z,4.45
2023-03-12T06:04:35.735Z,4.61
2023-03-12T06:05:38.198Z,4.29
2023-03-12T06:06:41.053Z,4.84
2023-03-12T06:07:43.742Z,5.11
2023-03-12T06:08:46.426Z,4.49
2023-03-12T06:09:48.975Z,4.95
2023-03-12T06:10:51.944Z,4.31
2023-03-12T06:11:54.517Z,4.11
2023-03-12T06:12:57.360Z,4.18
2023-03-12T06:13:59.963Z,3.65
2023-03-12T06:15:02.443Z,3.80
2023-03-12T06:16:05.429Z,4.35
2023-03-12T06:17:07.988Z,4.25
2023-03-12T06:18:10.558Z,4.05
2023-03-12T06:19:13.121Z,3.35
2023-03-12T06:20:16.998Z,3.56
2023-03-12T06:21:19.592Z,3.78
2023-03-12T06:22:22.139Z,3.53
2023-03-12T06:23:24.730Z,3.40
2023-03-12T06:24:27.285Z,3.35
2023-03-12T06:25:29.850Z,4.23
2023-03-12T06:26:32.729Z,2.93
2023-03-12T06:27:35.280Z,3.31
2023-03-12T06:28:37.841Z,3.61
2023-03-12T06:29:40.397Z,3.65
2023-03-12T06:30:43.048Z,3.43
2023-03-12T06:31:45.706Z,3.39
2023-03-12T06:32:48.283Z,3.04
2023-03-12T06:33:50.999Z,3.00
2023-03-12T06:34:53.580Z,3.20
2023-03-12T06:35:56.418Z,3.51
2023-03-12T06:36:59.505Z,2.85
2023-03-12T06:38:01.962Z,2.91
2023-03-12T06:39:04.506Z,3.14
2023-03-12T06:40:07.366Z,3.03
2023-03-12T06:41:09.917Z,3.25
2023-03-12T06:42:12.519Z,3.07
2023-03-12T06:43:15.063Z,2.98
2023-03-12T06:44:17.612Z,3.04
2023-03-12T06:45:20.169Z,3.09
2023-03-12T06:46:22.890Z,3.01
2023-03-12T06:47:25.543Z,2.47
2023-03-12T06:48:28.065Z,3.19
2023-03-12T06:49:30.619Z,2.77
2023-03-12T06:50:33.377Z,2.43
2023-03-12T06:51:35.938Z,3.21
2023-03-12T06:52:38.563Z,2.93
2023-03-12T06:53:42.499Z,3.18
2023-03-12T06:54:45.398Z,3.49
2023-03-12T06:55:47.954Z,2.83
2023-03-12T06:56:50.717Z,3.38
2023-03-12T06:57:53.321Z,3.39
2023-03-12T06:58:55.868Z,3.91
2023-03-12T06:59:58.467Z,3.19
2023-03-12T07:01:01.426Z,6.17
2023-03-12T07:02:04.091Z,3.00
2023-03-12T07:03:06.754Z,2.70
2023-03-12T07:04:09.313Z,2.62
2023-03-12T07:05:11.919Z,2.33
2023-03-12T07:06:14.752Z,2.62
2023-03-12T07:07:17.313Z,2.56
2023-03-12T07:08:19.852Z,4.62
2023-03-12T07:09:22.441Z,4.53
2023-03-12T07:10:25.194Z,2.14
2023-03-12T07:11:27.649Z,3.01
2023-03-12T07:12:30.241Z,5.15
2023-03-12T07:13:32.823Z,2.59
2023-03-12T07:14:35.431Z,1.85
2023-03-12T07:15:37.990Z,2.23
2023-03-12T07:16:40.907Z,1.81
2023-03-12T07:17:43.470Z,1.51
2023-03-12T07:18:46.079Z,2.15
2023-03-12T07:19:49.855Z,1.52
2023-03-12T07:20:52.510Z,1.46
2023-03-12T07:21:55.125Z,1.53
2023-03-12T07:22:57.693Z,2.47
2023-03-12T07:24:00.286Z,2.51
2023-03-12T07:25:03.011Z,3.05
2023-03-12T07:26:06.079Z,7.42
2023-03-12T07:27:08.624Z,3.45
2023-03-12T07:28:11.175Z,1.97
2023-03-12T07:29:13.740Z,6.09
2023-03-12T07:30:16.828Z,3.03
2023-03-12T07:31:19.396Z,3.29
2023-03-12T07:32:22.167Z,1.84
2023-03-12T07:33:24.885Z,3.18
2023-03-12T07:34:27.845Z,4.41
2023-03-12T07:35:30.466Z,4.04
2023-03-12T07:36:33.617Z,3.59
2023-03-12T07:37:36.352Z,5.41
2023-03-12T07:38:38.916Z,4.33
2023-03-12T07:39:41.522Z,3.94
2023-03-12T07:40:44.086Z,2.97
2023-03-12T07:41:46.825Z,3.04
2023-03-12T07:42:49.410Z,3.84
2023-03-12T07:43:52.055Z,2.09
2023-03-12T07:44:54.803Z,3.83
2023-03-12T07:45:57.373Z,4.46
2023-03-12T07:47:09.695Z,3.28
2023-03-12T07:48:04.407Z,2.68
2023-03-12T07:49:06.941Z,9.48
2023-03-12T07:50:10.335Z,8.84
2023-03-12T07:51:12.930Z,6.92
2023-03-12T07:52:15.509Z,5.76
2023-03-12T07:53:18.238Z,2.42
2023-03-12T07:54:20.936Z,5.11
2023-03-12T07:55:23.624Z,6.96
2023-03-12T07:56:26.652Z,6.22
2023-03-12T07:57:29.253Z,8.17
2023-03-12T07:58:31.871Z,9.07
2023-03-12T07:59:34.576Z,3.29
2023-03-12T08:00:37.348Z,2.57
2023-03-12T08:01:40.747Z,3.20
2023-03-12T08:02:43.563Z,4.12
2023-03-12T08:03:46.449Z,6.70
2023-03-12T08:04:49.255Z,10.25
2023-03-12T08:05:52.214Z,3.74
2023-03-12T08:06:54.783Z,5.21
2023-03-12T08:07:57.393Z,2.43
2023-03-12T08:08:59.936Z,4.01
2023-03-12T08:10:02.607Z,1.27
2023-03-12T08:11:05.541Z,2.39
2023-03-12T08:12:08.175Z,1.44
2023-03-12T08:13:10.909Z,1.17
2023-03-12T08:14:13.550Z,1.27
2023-03-12T08:15:16.113Z,1.12
2023-03-12T08:16:19.201Z,1.37
2023-03-12T08:17:21.755Z,1.53
2023-03-12T08:18:24.314Z,1.46
2023-03-12T08:19:26.913Z,1.35
2023-03-12T08:20:29.675Z,1.15
2023-03-12T08:21:32.241Z,1.22
2023-03-12T08:22:34.797Z,1.37
2023-03-12T08:23:37.380Z,1.46
2023-03-12T08:24:39.935Z,1.58
2023-03-12T08:25:42.505Z,1.11
2023-03-12T08:26:45.521Z,1.12
2023-03-12T08:27:48.080Z,1.18
2023-03-12T08:28:50.632Z,1.29
2023-03-12T08:29:53.190Z,1.30
2023-03-12T08:30:55.860Z,1.47
2023-03-12T08:32:05.049Z,1.66
2023-03-12T08:33:04.126Z,1.97
2023-03-12T08:34:06.676Z,1.91
2023-03-12T08:35:09.261Z,2.67
2023-03-12T08:36:12.939Z,3.12
2023-03-12T08:37:15.520Z,5.33
2023-03-12T08:38:18.096Z,1.85
2023-03-12T08:39:20.655Z,0.94
2023-03-12T08:40:23.312Z,1.53
2023-03-12T08:41:25.866Z,0.99
2023-03-12T08:42:28.434Z,1.26
2023-03-12T08:43:30.999Z,1.09
2023-03-12T08:44:33.563Z,0.82
2023-03-12T08:45:36.179Z,1.43
2023-03-12T08:46:38.704Z,0.73
2023-03-12T08:47:41.269Z,1.57
2023-03-12T08:48:43.824Z,1.25
2023-03-12T08:49:46.409Z,1.18
2023-03-12T08:50:49.003Z,1.07
2023-03-12T08:51:51.386Z,1.27
2023-03-12T08:52:53.955Z,0.97
2023-03-12T08:53:56.515Z,0.81
2023-03-12T08:54:59.325Z,1.17
2023-03-12T08:56:01.891Z,0.95
2023-03-12T08:57:04.458Z,1.37
2023-03-12T08:58:07.064Z,1.21
2023-03-12T08:59:09.623Z,1.29
2023-03-12T09:00:12.389Z,5.62
2023-03-12T09:01:14.981Z,5.88
2023-03-12T09:02:17.415Z,12.74
2023-03-12T09:03:20.011Z,10.67
2023-03-12T09:04:22.570Z,17.61
2023-03-12T09:05:25.109Z,11.00
2023-03-12T09:06:27.907Z,19.04
2023-03-12T09:07:30.464Z,18.68
2023-03-12T09:08:32.924Z,6.93
2023-03-12T09:09:35.486Z,6.46
2023-03-12T09:10:38.306Z,9.01
2023-03-12T09:11:40.867Z,13.14
2023-03-12T09:12:43.455Z,8.08
2023-03-12T09:14:09.898Z,12.98
2023-03-12T09:15:02.950Z,7.76
2023-03-12T09:15:55.012Z,12.08
2023-03-12T09:16:57.688Z,7.89
2023-03-12T09:18:00.635Z,8.78
2023-03-12T09:19:03.221Z,8.91
2023-03-12T09:20:06.270Z,15.30
2023-03-12T09:21:08.840Z,18.45
2023-03-12T09:22:11.404Z,14.55
2023-03-12T09:23:13.975Z,5.16
2023-03-12T09:24:16.546Z,6.47
2023-03-12T09:25:19.506Z,3.47
2023-03-12T09:26:22.289Z,3.04
2023-03-12T09:27:25.152Z,3.59
2023-03-12T09:28:27.701Z,2.57
2023-03-12T09:29:30.265Z,3.49
2023-03-12T09:30:33.047Z,2.77
2023-03-12T09:31:35.587Z,3.30
2023-03-12T09:32:38.153Z,2.27
2023-03-12T09:33:40.711Z,2.31
2023-03-12T09:34:43.364Z,2.77
2023-03-12T09:35:45.956Z,2.07
2023-03-12T09:36:48.540Z,1.81
2023-03-12T09:37:51.103Z,2.59
2023-03-12T09:38:53.663Z,3.06
2023-03-12T09:39:56.221Z,3.14
2023-03-12T09:40:58.985Z,1.69
2023-03-12T09:42:01.612Z,2.45
2023-03-12T09:43:04.078Z,1.53
2023-03-12T09:44:06.771Z,1.27
2023-03-12T09:45:09.333Z,1.95
2023-03-12T09:46:12.743Z,1.87
2023-03-12T09:47:15.376Z,1.95
2023-03-12T09:48:17.936Z,2.35
2023-03-12T09:49:20.497Z,1.77
2023-03-12T09:50:23.445Z,1.59
2023-03-12T09:51:26.006Z,1.98
2023-03-12T09:52:28.524Z,1.65
2023-03-12T09:53:31.116Z,1.78
2023-03-12T09:54:33.680Z,1.56
2023-03-12T09:55:36.248Z,1.74
2023-03-12T09:56:38.933Z,1.60
2023-03-12T09:57:41.490Z,1.31
2023-03-12T09:58:44.053Z,1.03
2023-03-12T09:59:46.857Z,1.31
2023-03-12T10:00:49.410Z,1.41
2023-03-12T10:01:52.021Z,1.59
2023-03-12T10:02:54.632Z,3.69
2023-03-12T10:03:57.150Z,5.31
2023-03-12T10:05:00.376Z,7.23
2023-03-12T10:06:03.434Z,25.14
2023-03-12T10:07:06.005Z,16.80
2023-03-12T10:08:23.920Z,31.03
2023-03-12T10:09:12.931Z,58.57
2023-03-12T10:10:15.620Z,36.11
2023-03-12T10:11:18.229Z,19.66
2023-03-12T10:12:20.905Z,54.89
2023-03-12T10:13:23.544Z,54.15
2023-03-12T10:14:25.920Z,45.59
2023-03-12T10:15:28.470Z,52.31
2023-03-12T10:16:31.389Z,25.39
2023-03-12T10:17:33.979Z,56.16
2023-03-12T10:18:36.669Z,72.99
2023-03-12T10:19:39.294Z,49.65
2023-03-12T10:20:41.963Z,41.67
2023-03-12T10:21:44.593Z,82.39
2023-03-12T10:22:47.166Z,23.98
2023-03-12T10:23:49.807Z,94.15
2023-03-12T10:24:52.362Z,56.00
2023-03-12T10:25:54.926Z,43.03
2023-03-12T10:26:57.738Z,63.23
2023-03-12T10:28:00.288Z,9.96
2023-03-12T10:29:03.008Z,50.89
2023-03-12T10:30:05.987Z,55.98
2023-03-12T10:31:08.564Z,30.29
2023-03-12T10:32:11.482Z,15.86
2023-03-12T10:33:14.016Z,23.52
2023-03-12T10:34:16.426Z,22.64
2023-03-12T10:35:21.639Z,23.17
2023-03-12T10:36:23.601Z,22.58
2023-03-12T10:37:26.229Z,25.82
2023-03-12T10:38:29.259Z,46.02
2023-03-12T10:39:31.885Z,28.73
2023-03-12T10:40:34.617Z,31.31
2023-03-12T10:41:37.165Z,35.53
2023-03-12T10:42:39.992Z,31.55
2023-03-12T10:43:42.591Z,25.35
2023-03-12T10:44:45.244Z,15.57
2023-03-12T10:45:47.842Z,11.73
2023-03-12T10:46:50.743Z,7.69
2023-03-12T10:47:53.667Z,9.19
2023-03-12T10:48:56.572Z,4.87
2023-03-12T10:49:59.139Z,12.84
2023-03-12T10:51:02.052Z,12.64
2023-03-12T10:52:04.614Z,17.08
2023-03-12T10:53:07.223Z,19.70
2023-03-12T10:54:09.850Z,17.32
2023-03-12T10:55:12.396Z,12.77
2023-03-12T10:56:16.465Z,7.28
2023-03-12T10:57:18.952Z,7.52
2023-03-12T10:58:21.556Z,7.85
2023-03-12T10:59:24.127Z,14.19
2023-03-12T11:00:26.796Z,18.19
2023-03-12T11:01:29.397Z,11.58
2023-03-12T11:02:31.920Z,5.89
2023-03-12T11:03:34.492Z,10.31
2023-03-12T11:04:37.050Z,8.29
2023-03-12T11:05:39.620Z,8.47
2023-03-12T11:06:42.455Z,5.66
2023-03-12T11:07:44.907Z,6.51
2023-03-12T11:08:47.767Z,7.54
2023-03-12T11:09:50.225Z,4.53
2023-03-12T11:10:52.893Z,7.65
2023-03-12T11:11:55.450Z,10.84
2023-03-12T11:12:58.010Z,7.43
2023-03-12T11:14:00.610Z,10.37
2023-03-12T11:15:03.203Z,5.19
2023-03-12T11:16:05.959Z,8.66
2023-03-12T11:17:08.538Z,6.17
2023-03-12T11:18:11.096Z,16.15
2023-03-12T11:19:13.699Z,5.29
2023-03-12T11:20:16.575Z,8.26
2023-03-12T11:21:19.135Z,4.05
2023-03-12T11:22:24.838Z,3.03
2023-03-12T11:23:28.312Z,4.24
2023-03-12T11:24:30.889Z,7.47
2023-03-12T11:25:33.455Z,6.77
2023-03-12T11:26:36.032Z,4.05
2023-03-12T11:27:38.599Z,2.35
2023-03-12T11:28:41.143Z,4.00
2023-03-12T11:29:43.839Z,4.41
2023-03-12T11:30:46.685Z,11.78
2023-03-12T11:31:49.460Z,4.98
2023-03-12T11:32:52.112Z,3.15
2023-03-12T11:33:54.710Z,1.30
2023-03-12T11:34:57.289Z,2.03
2023-03-12T11:35:59.876Z,1.06
2023-03-12T11:37:02.394Z,1.57
2023-03-12T11:38:04.991Z,1.69
2023-03-12T11:39:07.545Z,2.07
2023-03-12T11:40:11.061Z,3.53
2023-03-12T11:41:13.629Z,1.51
2023-03-12T11:42:16.146Z,2.51
2023-03-12T11:43:29.225Z,3.35
2023-03-12T11:44:23.115Z,1.54
2023-03-12T11:45:25.694Z,2.31
2023-03-12T11:46:28.536Z,2.12
2023-03-12T11:47:31.126Z,1.08
2023-03-12T11:48:33.714Z,0.97
2023-03-12T11:49:36.273Z,1.11
2023-03-12T11:50:39.498Z,0.88
2023-03-12T11:51:42.076Z,0.69
2023-03-12T11:52:44.978Z,1.03
2023-03-12T11:53:47.619Z,1.23
2023-03-12T11:54:50.205Z,0.93
2023-03-12T11:55:52.770Z,1.09
2023-03-12T11:56:55.536Z,1.44
2023-03-12T11:57:58.120Z,0.87
2023-03-12T11:59:00.725Z,1.03
2023-03-12T12:00:03.184Z,1.00
2023-03-12T12:01:05.738Z,1.12
2023-03-12T12:02:08.332Z,1.08
2023-03-12T12:03:10.970Z,0.73
2023-03-12T12:04:13.503Z,1.47
2023-03-12T12:05:16.058Z,1.22
2023-03-12T12:06:18.958Z,1.19
2023-03-12T12:07:21.521Z,0.81
2023-03-12T12:08:24.085Z,0.87
2023-03-12T12:09:26.686Z,0.73
2023-03-12T12:10:29.639Z,0.83
2023-03-12T12:11:32.328Z,0.87
2023-03-12T12:12:34.996Z,1.25
2023-03-12T12:13:37.572Z,0.84
2023-03-12T12:14:40.099Z,0.72
2023-03-12T12:15:42.660Z,1.19
2023-03-12T12:16:45.363Z,1.33
2023-03-12T12:17:47.950Z,1.05
2023-03-12T12:18:50.455Z,1.41
2023-03-12T12:19:52.938Z,1.15
2023-03-12T12:20:55.684Z,1.44
2023-03-12T12:21:58.260Z,1.27
2023-03-12T12:23:01.086Z,1.84
2023-03-12T12:24:03.780Z,1.74
2023-03-12T12:25:06.729Z,0.86
2023-03-12T12:26:10.031Z,1.05
2023-03-12T12:27:12.568Z,1.37
2023-03-12T12:28:15.129Z,0.52
2023-03-12T12:29:17.696Z,1.19
2023-03-12T12:30:20.375Z,0.53
2023-03-12T12:31:23.039Z,0.72
2023-03-12T12:32:25.728Z,0.54
2023-03-12T12:33:28.682Z,0.69
2023-03-12T12:34:31.231Z,0.89
2023-03-12T12:35:33.846Z,0.71
2023-03-12T12:36:36.676Z,0.69
2023-03-12T12:37:39.811Z,0.77
2023-03-12T12:38:42.561Z,0.72
2023-03-12T12:39:46.971Z,1.17
2023-03-12T12:40:49.836Z,1.03
2023-03-12T12:41:52.399Z,0.52
2023-03-12T12:42:54.969Z,1.49
2023-03-12T12:43:57.589Z,0.73
2023-03-12T12:45:00.180Z,1.01
2023-03-12T12:46:02.903Z,1.28
2023-03-12T12:47:05.545Z,1.46
2023-03-12T12:48:08.216Z,1.55
2023-03-12T12:49:10.805Z,1.14
2023-03-12T12:50:14.091Z,0.93
2023-03-12T12:51:16.638Z,1.26
2023-03-12T12:52:19.215Z,1.41
2023-03-12T12:53:21.820Z,0.79
2023-03-12T12:54:24.403Z,0.63
2023-03-12T12:55:26.961Z,0.67
2023-03-12T12:56:29.842Z,0.83
2023-03-12T12:57:32.600Z,0.98
2023-03-12T12:58:35.202Z,0.89
2023-03-12T12:59:37.869Z,0.71
2023-03-12T13:00:40.552Z,1.08
2023-03-12T13:01:43.392Z,1.02
2023-03-12T13:02:46.153Z,0.52
2023-03-12T13:03:48.781Z,0.95
2023-03-12T13:04:51.732Z,3.22
2023-03-12T13:05:54.203Z,1.96
2023-03-12T13:06:56.861Z,0.93
2023-03-12T13:07:59.454Z,0.98
2023-03-12T13:09:02.021Z,1.06
2023-03-12T13:10:04.647Z,0.61
2023-03-12T13:11:18.329Z,1.26
2023-03-12T13:12:11.581Z,0.76
2023-03-12T13:13:14.172Z,1.13
2023-03-12T13:14:16.774Z,1.28
2023-03-12T13:15:19.384Z,1.50
2023-03-12T13:16:22.151Z,1.23
2023-03-12T13:17:24.742Z,1.08
2023-03-12T13:18:27.376Z,0.89
2023-03-12T13:19:29.937Z,0.69
2023-03-12T13:20:32.808Z,0.87
2023-03-12T13:21:35.357Z,0.79
2023-03-12T13:22:37.854Z,0.57
2023-03-12T13:23:40.411Z,1.31
2023-03-12T13:24:43.097Z,1.03
2023-03-12T13:25:45.860Z,0.87
2023-03-12T13:26:48.412Z,1.37
2023-03-12T13:27:50.969Z,1.57
2023-03-12T13:28:56.719Z,1.55
2023-03-12T13:29:57.980Z,1.42
2023-03-12T13:31:00.794Z,1.04
2023-03-12T13:32:03.256Z,1.47
2023-03-12T13:33:05.834Z,1.05
2023-03-12T13:34:08.381Z,0.63
2023-03-12T13:35:10.940Z,0.99
2023-03-12T13:36:15.345Z,0.96
2023-03-12T13:37:17.949Z,1.30
2023-03-12T13:38:20.505Z,0.61
2023-03-12T13:39:23.067Z,0.77
2023-03-12T13:40:25.934Z,0.88
2023-03-12T13:41:29.961Z,1.31
2023-03-12T13:42:32.949Z,0.69
2023-03-12T13:43:35.509Z,1.13
2023-03-12T13:44:38.096Z,0.54
2023-03-12T13:45:40.648Z,0.87
2023-03-12T13:46:43.602Z,0.78
2023-03-12T13:47:46.170Z,0.75
2023-03-12T13:48:48.740Z,0.65
2023-03-12T13:49:51.386Z,0.85